sensor_id;sensor_type;location;lat;lon;timestamp;pressure;altitude;pressure_sealevel;temperature;humidity
10484;BME280;5289;42.610;23.362;2022-07-19T00:01:45;91959.72;;;14.93;100.00
10484;BME280;5289;42.610;23.362;2022-07-19T00:04:12;91989.81;;;14.82;100.00
10484;BME280;5289;42.610;23.362;2022-07-19T00:06:38;91993.22;;;14.78;100.00
10484;BME280;5289;42.610;23.362;2022-07-19T00:09:06;91994.91;;;14.89;100.00
10484;BME280;5289;42.610;23.362;2022-07-19T00:11:33;91982.16;;;14.86;100.00
10484;BME280;5289;42.610;23.362;2022-07-19T00:13:59;91973.13;;;14.82;100.00
10484;BME280;5289;42.610;23.362;2022-07-19T00:16:26;91986.84;;;14.73;100.00
10484;BME280;5289;42.610;23.362;2022-07-19T00:18:53;91994.47;;;14.70;100.00
10484;BME280;5289;42.610;23.362;2022-07-19T00:21:19;92011.63;;;14.62;100.00
10484;BME280;5289;42.610;23.362;2022-07-19T00:23:46;91997.28;;;14.90;100.00
10484;BME280;5289;42.610;23.362;2022-07-19T00:26:13;91997.28;;;14.90;100.00
10484;BME280;5289;42.610;23.362;2022-07-19T00:28:40;92021.38;;;14.89;100.00
10484;BME280;5289;42.610;23.362;2022-07-19T00:31:07;92028.41;;;14.78;100.00
10484;BME280;5289;42.610;23.362;2022-07-19T00:33:33;92041.84;;;14.71;100.00
10484;BME280;5289;42.610;23.362;2022-07-19T00:36:00;92051.81;;;14.64;100.00
10484;BME280;5289;42.610;23.362;2022-07-19T00:38:26;92043.03;;;14.59;100.00
10484;BME280;5289;42.610;23.362;2022-07-19T00:40:53;92028.53;;;14.61;100.00
10484;BME280;5289;42.610;23.362;2022-07-19T00:43:21;92003.91;;;14.61;100.00
10484;BME280;5289;42.610;23.362;2022-07-19T00:45:47;92017.91;;;14.56;100.00
10484;BME280;5289;42.610;23.362;2022-07-19T00:48:14;92003.38;;;14.59;100.00
10484;BME280;5289;42.610;23.362;2022-07-19T00:50:40;91996.00;;;14.61;100.00
10484;BME280;5289;42.610;23.362;2022-07-19T00:53:07;92002.03;;;14.56;100.00
10484;BME280;5289;42.610;23.362;2022-07-19T00:55:34;92018.34;;;14.48;100.00
10484;BME280;5289;42.610;23.362;2022-07-19T00:58:03;92009.13;;;14.51;100.00
10484;BME280;5289;42.610;23.362;2022-07-19T01:00:32;92027.34;;;14.47;100.00
10484;BME280;5289;42.610;23.362;2022-07-19T01:02:59;92011.97;;;14.44;100.00
10484;BME280;5289;42.610;23.362;2022-07-19T01:05:26;92009.28;;;14.39;100.00
10484;BME280;5289;42.610;23.362;2022-07-19T01:07:53;92015.28;;;14.34;100.00
10484;BME280;5289;42.610;23.362;2022-07-19T01:10:19;92015.03;;;14.36;100.00
10484;BME280;5289;42.610;23.362;2022-07-19T01:12:46;92008.31;;;14.50;100.00
10484;BME280;5289;42.610;23.362;2022-07-19T01:15:14;92025.28;;;14.54;100.00
10484;BME280;5289;42.610;23.362;2022-07-19T01:17:43;92037.41;;;14.50;100.00
10484;BME280;5289;42.610;23.362;2022-07-19T01:20:09;92044.50;;;14.45;100.00
10484;BME280;5289;42.610;23.362;2022-07-19T01:22:37;92043.75;;;14.49;100.00
10484;BME280;5289;42.610;23.362;2022-07-19T01:25:05;92042.16;;;14.48;100.00
10484;BME280;5289;42.610;23.362;2022-07-19T01:27:31;92047.66;;;14.42;100.00
10484;BME280;5289;42.610;23.362;2022-07-19T01:30:05;92037.25;;;14.35;100.00
10484;BME280;5289;42.610;23.362;2022-07-19T01:32:35;92042.53;;;14.35;100.00
10484;BME280;5289;42.610;23.362;2022-07-19T01:35:02;92030.66;;;14.38;100.00
10484;BME280;5289;42.610;23.362;2022-07-19T01:37:28;92027.78;;;14.39;100.00
10484;BME280;5289;42.610;23.362;2022-07-19T01:39:56;92041.25;;;14.38;100.00
10484;BME280;5289;42.610;23.362;2022-07-19T01:42:23;92045.13;;;14.30;100.00
10484;BME280;5289;42.610;23.362;2022-07-19T01:44:50;92043.75;;;14.27;100.00
10484;BME280;5289;42.610;23.362;2022-07-19T01:47:17;92035.28;;;14.25;100.00
10484;BME280;5289;42.610;23.362;2022-07-19T01:49:43;92038.13;;;14.19;100.00
10484;BME280;5289;42.610;23.362;2022-07-19T01:52:10;92045.94;;;14.09;100.00
10484;BME280;5289;42.610;23.362;2022-07-19T01:54:36;92056.75;;;14.07;100.00
10484;BME280;5289;42.610;23.362;2022-07-19T01:57:04;92047.97;;;14.02;100.00
10484;BME280;5289;42.610;23.362;2022-07-19T01:59:31;92042.69;;;14.02;100.00
10484;BME280;5289;42.610;23.362;2022-07-19T02:01:57;92018.84;;;13.97;100.00
10484;BME280;5289;42.610;23.362;2022-07-19T02:04:24;92004.66;;;14.03;100.00
10484;BME280;5289;42.610;23.362;2022-07-19T02:06:50;92000.41;;;14.02;100.00
10484;BME280;5289;42.610;23.362;2022-07-19T02:09:17;91992.00;;;14.05;100.00
10484;BME280;5289;42.610;23.362;2022-07-19T02:11:43;91995.13;;;14.02;100.00
10484;BME280;5289;42.610;23.362;2022-07-19T02:14:11;91985.06;;;13.99;100.00
10484;BME280;5289;42.610;23.362;2022-07-19T02:16:38;91994.00;;;13.98;100.00
10484;BME280;5289;42.610;23.362;2022-07-19T02:19:06;91998.22;;;13.94;100.00
10484;BME280;5289;42.610;23.362;2022-07-19T02:21:33;91991.31;;;13.93;100.00
10484;BME280;5289;42.610;23.362;2022-07-19T02:23:59;91988.91;;;13.91;100.00
10484;BME280;5289;42.610;23.362;2022-07-19T02:26:26;91993.09;;;13.87;100.00
10484;BME280;5289;42.610;23.362;2022-07-19T02:28:52;91995.19;;;13.85;100.00
10484;BME280;5289;42.610;23.362;2022-07-19T02:31:20;91988.06;;;13.85;100.00
10484;BME280;5289;42.610;23.362;2022-07-19T02:33:47;91987.16;;;13.75;100.00
10484;BME280;5289;42.610;23.362;2022-07-19T02:36:13;91985.25;;;13.70;100.00
10484;BME280;5289;42.610;23.362;2022-07-19T02:38:40;91986.22;;;13.64;100.00
10484;BME280;5289;42.610;23.362;2022-07-19T02:41:06;91989.84;;;13.58;100.00
10484;BME280;5289;42.610;23.362;2022-07-19T02:43:33;91987.66;;;13.50;100.00
10484;BME280;5289;42.610;23.362;2022-07-19T02:45:59;91987.09;;;13.48;100.00
10484;BME280;5289;42.610;23.362;2022-07-19T02:48:27;91972.84;;;13.49;100.00
10484;BME280;5289;42.610;23.362;2022-07-19T02:50:54;91966.47;;;13.45;100.00
10484;BME280;5289;42.610;23.362;2022-07-19T02:53:20;91967.97;;;13.41;100.00
10484;BME280;5289;42.610;23.362;2022-07-19T02:55:47;91957.13;;;13.37;100.00
10484;BME280;5289;42.610;23.362;2022-07-19T02:58:13;91951.03;;;13.37;100.00
10484;BME280;5289;42.610;23.362;2022-07-19T03:00:40;91943.69;;;13.39;100.00
10484;BME280;5289;42.610;23.362;2022-07-19T03:03:06;91941.09;;;13.44;100.00
10484;BME280;5289;42.610;23.362;2022-07-19T03:05:51;91944.78;;;13.43;100.00
10484;BME280;5289;42.610;23.362;2022-07-19T03:08:18;91939.72;;;13.41;100.00
10484;BME280;5289;42.610;23.362;2022-07-19T03:10:45;91940.00;;;13.40;100.00
10484;BME280;5289;42.610;23.362;2022-07-19T03:13:11;91937.88;;;13.42;100.00
10484;BME280;5289;42.610;23.362;2022-07-19T03:15:37;91936.63;;;13.44;100.00
10484;BME280;5289;42.610;23.362;2022-07-19T03:18:04;91936.09;;;13.47;100.00
10484;BME280;5289;42.610;23.362;2022-07-19T03:20:31;91931.16;;;13.51;100.00
10484;BME280;5289;42.610;23.362;2022-07-19T03:22:59;91930.66;;;13.54;100.00
10484;BME280;5289;42.610;23.362;2022-07-19T03:25:25;91928.06;;;13.59;100.00
10484;BME280;5289;42.610;23.362;2022-07-19T03:27:52;91936.03;;;13.64;100.00
10484;BME280;5289;42.610;23.362;2022-07-19T03:30:18;91936.19;;;13.79;100.00
10484;BME280;5289;42.610;23.362;2022-07-19T03:32:45;91888.53;;;14.55;100.00
10484;BME280;5289;42.610;23.362;2022-07-19T03:35:12;91851.75;;;15.52;100.00
10484;BME280;5289;42.610;23.362;2022-07-19T03:37:38;91783.13;;;17.42;100.00
10484;BME280;5289;42.610;23.362;2022-07-19T03:40:07;91854.84;;;19.03;100.00
10484;BME280;5289;42.610;23.362;2022-07-19T03:42:33;92099.97;;;20.28;100.00
10484;BME280;5289;42.610;23.362;2022-07-19T03:45:00;92444.44;;;21.30;100.00
10484;BME280;5289;42.610;23.362;2022-07-19T03:47:26;92717.56;;;22.30;100.00
10484;BME280;5289;42.610;23.362;2022-07-19T03:49:53;92881.75;;;23.32;100.00
10484;BME280;5289;42.610;23.362;2022-07-19T03:52:19;92993.84;;;24.22;100.00
10484;BME280;5289;42.610;23.362;2022-07-19T03:54:46;93044.34;;;25.10;100.00
10484;BME280;5289;42.610;23.362;2022-07-19T03:57:14;93131.31;;;25.80;100.00
10484;BME280;5289;42.610;23.362;2022-07-19T03:59:40;93126.53;;;26.42;100.00
10484;BME280;5289;42.610;23.362;2022-07-19T04:02:07;93216.16;;;27.53;100.00
10484;BME280;5289;42.610;23.362;2022-07-19T04:04:33;93563.72;;;28.36;100.00
10484;BME280;5289;42.610;23.362;2022-07-19T04:07:00;93632.28;;;29.27;100.00
10484;BME280;5289;42.610;23.362;2022-07-19T04:09:26;93696.09;;;30.19;100.00
10484;BME280;5289;42.610;23.362;2022-07-19T04:11:53;93747.50;;;30.24;100.00
10484;BME280;5289;42.610;23.362;2022-07-19T04:14:21;93750.72;;;30.26;100.00
10484;BME280;5289;42.610;23.362;2022-07-19T04:16:48;93734.59;;;30.66;100.00
10484;BME280;5289;42.610;23.362;2022-07-19T04:19:14;93785.56;;;29.97;100.00
10484;BME280;5289;42.610;23.362;2022-07-19T04:21:41;93722.09;;;30.20;100.00
10484;BME280;5289;42.610;23.362;2022-07-19T04:24:07;93770.25;;;31.26;100.00
10484;BME280;5289;42.610;23.362;2022-07-19T04:26:33;93767.44;;;31.40;100.00
10484;BME280;5289;42.610;23.362;2022-07-19T04:29:00;93797.84;;;31.90;100.00
10484;BME280;5289;42.610;23.362;2022-07-19T04:31:28;93815.09;;;32.76;100.00
10484;BME280;5289;42.610;23.362;2022-07-19T04:33:54;93806.59;;;33.04;100.00
10484;BME280;5289;42.610;23.362;2022-07-19T04:36:21;93802.97;;;31.91;100.00
10484;BME280;5289;42.610;23.362;2022-07-19T04:38:47;93772.59;;;31.50;100.00
10484;BME280;5289;42.610;23.362;2022-07-19T04:41:14;93740.06;;;30.74;100.00
10484;BME280;5289;42.610;23.362;2022-07-19T04:43:40;93765.41;;;32.10;100.00
10484;BME280;5289;42.610;23.362;2022-07-19T04:46:07;93793.50;;;33.52;100.00
10484;BME280;5289;42.610;23.362;2022-07-19T04:48:35;93778.28;;;34.60;100.00
10484;BME280;5289;42.610;23.362;2022-07-19T04:51:01;93811.47;;;35.24;100.00
10484;BME280;5289;42.610;23.362;2022-07-19T04:53:28;93823.34;;;35.85;100.00
10484;BME280;5289;42.610;23.362;2022-07-19T04:55:55;93830.13;;;35.55;100.00
10484;BME280;5289;42.610;23.362;2022-07-19T04:58:22;93804.56;;;35.84;100.00
10484;BME280;5289;42.610;23.362;2022-07-19T05:00:48;93814.38;;;36.21;100.00
10484;BME280;5289;42.610;23.362;2022-07-19T05:03:15;93825.19;;;36.94;100.00
10484;BME280;5289;42.610;23.362;2022-07-19T05:05:43;93854.03;;;37.44;100.00
10484;BME280;5289;42.610;23.362;2022-07-19T05:08:09;93854.28;;;37.82;100.00
10484;BME280;5289;42.610;23.362;2022-07-19T05:10:36;93841.25;;;37.64;100.00
10484;BME280;5289;42.610;23.362;2022-07-19T05:13:03;93855.78;;;36.32;100.00
10484;BME280;5289;42.610;23.362;2022-07-19T05:15:29;93859.28;;;35.84;100.00
10484;BME280;5289;42.610;23.362;2022-07-19T05:17:55;93865.25;;;35.32;100.00
10484;BME280;5289;42.610;23.362;2022-07-19T05:20:22;93855.31;;;35.61;100.00
10484;BME280;5289;42.610;23.362;2022-07-19T05:22:50;93858.78;;;36.91;100.00
10484;BME280;5289;42.610;23.362;2022-07-19T05:25:16;93862.59;;;36.75;100.00
10484;BME280;5289;42.610;23.362;2022-07-19T05:27:43;93864.09;;;37.00;100.00
10484;BME280;5289;42.610;23.362;2022-07-19T05:30:10;93870.22;;;36.57;100.00
10484;BME280;5289;42.610;23.362;2022-07-19T05:32:37;93853.94;;;37.13;100.00
10484;BME280;5289;42.610;23.362;2022-07-19T05:35:04;93875.44;;;37.82;100.00
10484;BME280;5289;42.610;23.362;2022-07-19T05:37:30;93866.69;;;38.23;100.00
10484;BME280;5289;42.610;23.362;2022-07-19T05:39:58;93869.19;;;39.14;100.00
10484;BME280;5289;42.610;23.362;2022-07-19T05:42:25;93874.03;;;39.40;100.00
10484;BME280;5289;42.610;23.362;2022-07-19T05:44:52;93877.50;;;39.17;100.00
10484;BME280;5289;42.610;23.362;2022-07-19T05:47:18;93872.69;;;38.60;100.00
10484;BME280;5289;42.610;23.362;2022-07-19T05:49:45;93872.53;;;38.53;100.00
10484;BME280;5289;42.610;23.362;2022-07-19T05:52:11;93867.75;;;37.87;100.00
10484;BME280;5289;42.610;23.362;2022-07-19T05:54:38;93867.75;;;37.87;100.00
10484;BME280;5289;42.610;23.362;2022-07-19T05:57:06;93862.41;;;37.94;100.00
10484;BME280;5289;42.610;23.362;2022-07-19T05:59:32;93857.84;;;36.87;100.00
10484;BME280;5289;42.610;23.362;2022-07-19T06:02:00;93860.84;;;36.82;100.00
10484;BME280;5289;42.610;23.362;2022-07-19T06:04:28;93861.69;;;38.45;100.00
10484;BME280;5289;42.610;23.362;2022-07-19T06:07:00;93864.91;;;38.31;100.00
10484;BME280;5289;42.610;23.362;2022-07-19T06:38:47;93857.56;;;40.05;99.66
10484;BME280;5289;42.610;23.362;2022-07-19T06:41:14;93843.38;;;40.25;100.00
10484;BME280;5289;42.610;23.362;2022-07-19T06:43:41;93850.41;;;40.00;98.84
10484;BME280;5289;42.610;23.362;2022-07-19T06:46:09;93844.97;;;40.26;100.00
10484;BME280;5289;42.610;23.362;2022-07-19T06:48:36;93849.91;;;38.95;100.00
10484;BME280;5289;42.610;23.362;2022-07-19T06:51:03;93851.22;;;39.20;100.00
10484;BME280;5289;42.610;23.362;2022-07-19T06:53:31;93851.41;;;39.69;100.00
10484;BME280;5289;42.610;23.362;2022-07-19T06:55:59;93846.78;;;40.68;93.46
10484;BME280;5289;42.610;23.362;2022-07-19T06:58:25;93851.06;;;40.39;92.36
10484;BME280;5289;42.610;23.362;2022-07-19T07:00:52;93855.81;;;40.65;89.81
10484;BME280;5289;42.610;23.362;2022-07-19T07:03:18;93853.75;;;41.14;86.61
10484;BME280;5289;42.610;23.362;2022-07-19T07:05:45;93857.00;;;40.18;91.03
10484;BME280;5289;42.610;23.362;2022-07-19T07:08:12;93849.78;;;40.10;83.08
10484;BME280;5289;42.610;23.362;2022-07-19T07:10:38;93857.59;;;40.54;88.16
10484;BME280;5289;42.610;23.362;2022-07-19T07:13:07;93850.41;;;40.00;90.44
10484;BME280;5289;42.610;23.362;2022-07-19T07:15:33;93850.44;;;40.23;91.28
10484;BME280;5289;42.610;23.362;2022-07-19T07:18:00;93845.53;;;40.39;98.24
10484;BME280;5289;42.610;23.362;2022-07-19T07:23:23;93837.44;;;40.23;89.30
10484;BME280;5289;42.610;23.362;2022-07-19T07:25:54;93836.22;;;40.70;90.56
10484;BME280;5289;42.610;23.362;2022-07-19T07:28:22;93853.81;;;41.18;71.34
10484;BME280;5289;42.610;23.362;2022-07-19T07:30:50;93849.16;;;41.26;96.31
10484;BME280;5289;42.610;23.362;2022-07-19T07:33:18;93848.16;;;40.06;75.85
10484;BME280;5289;42.610;23.362;2022-07-19T07:35:45;93845.31;;;40.02;81.88
10484;BME280;5289;42.610;23.362;2022-07-19T07:38:12;93844.63;;;39.86;85.66
10484;BME280;5289;42.610;23.362;2022-07-19T07:40:38;93843.34;;;40.03;70.69
10484;BME280;5289;42.610;23.362;2022-07-19T07:43:07;93843.53;;;40.13;84.48
10484;BME280;5289;42.610;23.362;2022-07-19T07:45:37;93841.59;;;39.91;88.71
10484;BME280;5289;42.610;23.362;2022-07-19T07:48:04;93839.63;;;40.14;84.06
10484;BME280;5289;42.610;23.362;2022-07-19T07:50:31;93844.16;;;39.00;82.92
10484;BME280;5289;42.610;23.362;2022-07-19T07:52:57;93843.81;;;38.35;87.00
10484;BME280;5289;42.610;23.362;2022-07-19T07:55:24;93831.00;;;37.48;99.17
10484;BME280;5289;42.610;23.362;2022-07-19T07:57:51;93830.09;;;37.29;98.04
10484;BME280;5289;42.610;23.362;2022-07-19T08:00:17;93830.75;;;37.53;95.68
10484;BME280;5289;42.610;23.362;2022-07-19T08:02:45;93841.81;;;39.21;91.12
10484;BME280;5289;42.610;23.362;2022-07-19T08:05:14;93827.31;;;39.43;93.23
10484;BME280;5289;42.610;23.362;2022-07-19T08:07:40;93832.22;;;39.53;91.74
10484;BME280;5289;42.610;23.362;2022-07-19T08:10:08;93834.81;;;38.19;97.40
10484;BME280;5289;42.610;23.362;2022-07-19T08:12:35;93829.94;;;38.63;90.04
10484;BME280;5289;42.610;23.362;2022-07-19T08:15:01;93834.84;;;38.89;93.38
10484;BME280;5289;42.610;23.362;2022-07-19T08:17:31;93832.44;;;38.52;98.25
10484;BME280;5289;42.610;23.362;2022-07-19T08:20:03;93839.59;;;38.72;93.65
10484;BME280;5289;42.610;23.362;2022-07-19T08:22:30;93830.41;;;37.12;100.00
10484;BME280;5289;42.610;23.362;2022-07-19T08:24:56;93824.03;;;35.37;100.00
10484;BME280;5289;42.610;23.362;2022-07-19T08:27:23;93823.44;;;36.62;100.00
10484;BME280;5289;42.610;23.362;2022-07-19T08:29:49;93833.94;;;38.65;100.00
10484;BME280;5289;42.610;23.362;2022-07-19T08:32:16;93819.63;;;36.79;100.00
10484;BME280;5289;42.610;23.362;2022-07-19T08:34:42;93828.41;;;36.32;94.86
10484;BME280;5289;42.610;23.362;2022-07-19T08:37:10;93817.97;;;33.06;100.00
10484;BME280;5289;42.610;23.362;2022-07-19T08:39:37;93762.56;;;30.97;100.00
10484;BME280;5289;42.610;23.362;2022-07-19T08:42:03;93760.97;;;30.96;100.00
10484;BME280;5289;42.610;23.362;2022-07-19T08:44:30;93792.38;;;33.53;100.00
10484;BME280;5289;42.610;23.362;2022-07-19T08:47:00;93776.28;;;36.56;100.00
10484;BME280;5289;42.610;23.362;2022-07-19T08:49:26;93811.00;;;38.42;100.00
10484;BME280;5289;42.610;23.362;2022-07-19T08:51:53;93825.91;;;38.76;92.47
10484;BME280;5289;42.610;23.362;2022-07-19T08:54:21;93805.03;;;39.29;100.00
10484;BME280;5289;42.610;23.362;2022-07-19T08:56:47;93821.22;;;39.95;97.42
10484;BME280;5289;42.610;23.362;2022-07-19T08:59:31;93826.06;;;34.75;95.41
10484;BME280;5289;42.610;23.362;2022-07-19T09:01:58;93800.31;;;31.29;100.00
10484;BME280;5289;42.610;23.362;2022-07-19T09:04:25;93796.03;;;29.49;100.00
10484;BME280;5289;42.610;23.362;2022-07-19T09:06:54;93798.44;;;32.26;100.00
10484;BME280;5289;42.610;23.362;2022-07-19T09:09:22;93772.50;;;35.15;100.00
10484;BME280;5289;42.610;23.362;2022-07-19T09:11:50;93816.41;;;35.10;100.00
10484;BME280;5289;42.610;23.362;2022-07-19T09:14:17;93828.63;;;34.50;98.37
10484;BME280;5289;42.610;23.362;2022-07-19T09:16:47;93814.94;;;35.45;100.00
10484;BME280;5289;42.610;23.362;2022-07-19T09:19:17;93808.53;;;36.87;100.00
10484;BME280;5289;42.610;23.362;2022-07-19T09:21:57;93825.00;;;37.43;89.26
10484;BME280;5289;42.610;23.362;2022-07-19T09:24:25;93817.19;;;38.04;99.23
10484;BME280;5289;42.610;23.362;2022-07-19T09:27:00;93813.25;;;37.15;100.00
10484;BME280;5289;42.610;23.362;2022-07-19T09:29:27;93806.97;;;37.14;100.00
10484;BME280;5289;42.610;23.362;2022-07-19T09:31:58;93805.31;;;37.41;94.38
10484;BME280;5289;42.610;23.362;2022-07-19T09:34:27;93805.31;;;37.41;84.28
10484;BME280;5289;42.610;23.362;2022-07-19T09:37:06;93806.63;;;37.16;75.13
10484;BME280;5289;42.610;23.362;2022-07-19T09:39:34;93802.97;;;36.72;100.00
10484;BME280;5289;42.610;23.362;2022-07-19T09:42:01;93789.88;;;33.14;100.00
10484;BME280;5289;42.610;23.362;2022-07-19T09:44:28;93767.88;;;31.24;100.00
10484;BME280;5289;42.610;23.362;2022-07-19T09:46:55;93785.28;;;29.57;100.00
10484;BME280;5289;42.610;23.362;2022-07-19T09:49:21;93740.25;;;28.04;100.00
10484;BME280;5289;42.610;23.362;2022-07-19T09:51:48;93727.22;;;27.69;100.00
10484;BME280;5289;42.610;23.362;2022-07-19T09:54:16;93717.63;;;27.39;100.00
10484;BME280;5289;42.610;23.362;2022-07-19T09:56:45;93748.75;;;27.32;100.00
10484;BME280;5289;42.610;23.362;2022-07-19T09:59:12;93677.03;;;27.44;100.00
10484;BME280;5289;42.610;23.362;2022-07-19T10:01:38;93734.84;;;27.19;100.00
10484;BME280;5289;42.610;23.362;2022-07-19T10:04:07;93665.00;;;27.74;100.00
10484;BME280;5289;42.610;23.362;2022-07-19T10:06:34;93752.13;;;27.42;100.00
10484;BME280;5289;42.610;23.362;2022-07-19T10:09:01;93747.59;;;27.38;100.00
10484;BME280;5289;42.610;23.362;2022-07-19T10:11:29;93730.09;;;27.78;100.00
10484;BME280;5289;42.610;23.362;2022-07-19T10:13:57;93670.75;;;28.05;100.00
10484;BME280;5289;42.610;23.362;2022-07-19T10:16:24;93751.56;;;27.45;100.00
10484;BME280;5289;42.610;23.362;2022-07-19T10:18:56;93718.34;;;27.45;100.00
10484;BME280;5289;42.610;23.362;2022-07-19T10:21:27;93753.06;;;27.33;100.00
10484;BME280;5289;42.610;23.362;2022-07-19T10:23:54;93696.88;;;28.15;100.00
10484;BME280;5289;42.610;23.362;2022-07-19T10:26:33;93709.28;;;29.08;100.00
10484;BME280;5289;42.610;23.362;2022-07-19T10:29:08;93744.91;;;29.15;100.00
10484;BME280;5289;42.610;23.362;2022-07-19T10:31:35;93742.50;;;28.67;100.00
10484;BME280;5289;42.610;23.362;2022-07-19T10:34:03;93745.38;;;28.57;100.00
10484;BME280;5289;42.610;23.362;2022-07-19T10:39:28;93714.19;;;29.60;100.00
10484;BME280;5289;42.610;23.362;2022-07-19T10:42:09;93681.28;;;30.03;100.00
10484;BME280;5289;42.610;23.362;2022-07-19T10:47:19;93706.44;;;29.81;100.00
10484;BME280;5289;42.610;23.362;2022-07-19T10:49:46;93698.63;;;29.66;100.00
10484;BME280;5289;42.610;23.362;2022-07-19T10:52:30;93720.03;;;29.13;100.00
10484;BME280;5289;42.610;23.362;2022-07-19T10:57:43;93705.47;;;28.81;100.00
10484;BME280;5289;42.610;23.362;2022-07-19T11:00:15;93743.34;;;29.41;100.00
10484;BME280;5289;42.610;23.362;2022-07-19T11:02:43;93706.25;;;29.91;100.00
10484;BME280;5289;42.610;23.362;2022-07-19T11:05:19;93753.66;;;29.39;100.00
10484;BME280;5289;42.610;23.362;2022-07-19T11:07:47;93727.72;;;28.46;100.00
10484;BME280;5289;42.610;23.362;2022-07-19T11:10:13;93704.91;;;28.20;100.00
10484;BME280;5289;42.610;23.362;2022-07-19T11:12:47;93715.44;;;28.67;100.00
10484;BME280;5289;42.610;23.362;2022-07-19T11:15:13;93716.19;;;28.54;100.00
10484;BME280;5289;42.610;23.362;2022-07-19T11:17:40;93725.84;;;28.60;100.00
10484;BME280;5289;42.610;23.362;2022-07-19T11:20:17;93697.19;;;28.59;100.00
10484;BME280;5289;42.610;23.362;2022-07-19T11:22:45;93697.78;;;28.24;100.00
10484;BME280;5289;42.610;23.362;2022-07-19T11:25:12;93691.47;;;28.15;100.00
10484;BME280;5289;42.610;23.362;2022-07-19T11:27:42;93637.72;;;28.08;100.00
10484;BME280;5289;42.610;23.362;2022-07-19T11:30:10;93696.88;;;27.77;100.00
10484;BME280;5289;42.610;23.362;2022-07-19T11:32:36;93687.72;;;27.92;100.00
10484;BME280;5289;42.610;23.362;2022-07-19T11:35:04;93695.06;;;28.56;100.00
10484;BME280;5289;42.610;23.362;2022-07-19T11:37:32;93679.69;;;28.38;100.00
10484;BME280;5289;42.610;23.362;2022-07-19T11:39:59;93712.38;;;28.41;100.00
10484;BME280;5289;42.610;23.362;2022-07-19T11:42:27;93642.31;;;28.72;100.00
10484;BME280;5289;42.610;23.362;2022-07-19T11:44:53;93681.13;;;28.49;100.00
10484;BME280;5289;42.610;23.362;2022-07-19T11:47:20;93704.38;;;27.38;100.00
10484;BME280;5289;42.610;23.362;2022-07-19T11:49:47;93680.53;;;27.02;100.00
10484;BME280;5289;42.610;23.362;2022-07-19T11:52:13;93673.66;;;26.91;100.00
10484;BME280;5289;42.610;23.362;2022-07-19T11:54:41;93659.91;;;27.11;100.00
10484;BME280;5289;42.610;23.362;2022-07-19T11:57:21;93653.47;;;27.69;100.00
10484;BME280;5289;42.610;23.362;2022-07-19T11:59:48;93685.00;;;28.75;100.00
10484;BME280;5289;42.610;23.362;2022-07-19T12:02:14;93695.69;;;29.40;100.00
10484;BME280;5289;42.610;23.362;2022-07-19T12:04:41;93710.69;;;28.78;100.00
10484;BME280;5289;42.610;23.362;2022-07-19T12:07:07;93683.84;;;27.98;100.00
10484;BME280;5289;42.610;23.362;2022-07-19T12:09:34;93603.13;;;27.91;100.00
10484;BME280;5289;42.610;23.362;2022-07-19T12:12:11;93631.84;;;27.87;100.00
10484;BME280;5289;42.610;23.362;2022-07-19T12:14:38;93643.72;;;28.24;100.00
10484;BME280;5289;42.610;23.362;2022-07-19T12:17:09;93681.91;;;28.36;100.00
10484;BME280;5289;42.610;23.362;2022-07-19T12:19:35;93692.44;;;28.83;100.00
10484;BME280;5289;42.610;23.362;2022-07-19T12:22:02;93698.34;;;28.53;100.00
10484;BME280;5289;42.610;23.362;2022-07-19T12:24:29;93687.28;;;27.85;100.00
10484;BME280;5289;42.610;23.362;2022-07-19T12:27:00;93664.16;;;27.36;100.00
10484;BME280;5289;42.610;23.362;2022-07-19T12:29:29;93648.97;;;27.03;100.00
10484;BME280;5289;42.610;23.362;2022-07-19T12:31:57;93611.53;;;26.96;100.00
10484;BME280;5289;42.610;23.362;2022-07-19T12:34:24;93570.38;;;27.04;100.00
10484;BME280;5289;42.610;23.362;2022-07-19T12:36:52;93544.56;;;27.87;100.00
10484;BME280;5289;42.610;23.362;2022-07-19T12:39:23;93591.47;;;28.69;100.00
10484;BME280;5289;42.610;23.362;2022-07-19T12:41:53;93663.16;;;29.13;100.00
10484;BME280;5289;42.610;23.362;2022-07-19T12:44:20;93690.16;;;29.45;100.00
10484;BME280;5289;42.610;23.362;2022-07-19T12:46:48;93659.88;;;29.65;100.00
10484;BME280;5289;42.610;23.362;2022-07-19T12:49:14;93672.81;;;29.33;100.00
10484;BME280;5289;42.610;23.362;2022-07-19T12:51:42;93681.94;;;28.17;100.00
10484;BME280;5289;42.610;23.362;2022-07-19T12:54:09;93665.75;;;27.61;100.00
10484;BME280;5289;42.610;23.362;2022-07-19T12:56:36;93653.91;;;26.96;100.00
10484;BME280;5289;42.610;23.362;2022-07-19T12:59:02;93648.66;;;27.04;100.00
10484;BME280;5289;42.610;23.362;2022-07-19T13:01:48;93614.50;;;26.95;100.00
10484;BME280;5289;42.610;23.362;2022-07-19T13:04:14;93626.06;;;27.38;100.00
10484;BME280;5289;42.610;23.362;2022-07-19T13:06:41;93647.53;;;27.48;100.00
10484;BME280;5289;42.610;23.362;2022-07-19T13:09:07;93643.81;;;27.44;100.00
10484;BME280;5289;42.610;23.362;2022-07-19T13:11:35;93662.38;;;27.69;100.00
10484;BME280;5289;42.610;23.362;2022-07-19T13:14:01;93669.63;;;27.55;100.00
10484;BME280;5289;42.610;23.362;2022-07-19T13:16:31;93667.03;;;27.45;100.00
10484;BME280;5289;42.610;23.362;2022-07-19T13:18:58;93662.53;;;27.59;100.00
10484;BME280;5289;42.610;23.362;2022-07-19T13:21:26;93642.56;;;27.36;100.00
10484;BME280;5289;42.610;23.362;2022-07-19T13:23:53;93645.88;;;27.71;100.00
10484;BME280;5289;42.610;23.362;2022-07-19T13:26:19;93640.56;;;27.66;100.00
10484;BME280;5289;42.610;23.362;2022-07-19T13:28:46;93613.25;;;27.30;100.00
10484;BME280;5289;42.610;23.362;2022-07-19T13:31:12;93647.97;;;26.94;100.00
10484;BME280;5289;42.610;23.362;2022-07-19T13:33:39;93608.13;;;26.62;100.00
10484;BME280;5289;42.610;23.362;2022-07-19T13:36:07;93631.19;;;26.49;100.00